Time;durP1;ratioP1;P1;durP2;ratioP2;P2;SDS_P1;SDS_P2;PMS_P1;PMS_P2;Temp;Humidity;BMP_temperature;BMP_pressure;BME280_temperature;BME280_humidity;BME280_pressure;Samples;Min_cycle;Max_cycle;Signal;HPM_P1;HPM_P2
2022/12/29 00:00:00;;;;;;;2.78;2.58;;;;;;;9.75;100.00;99977.88;6250225;22;20063;-79
2022/12/29 00:02:26;;;;;;;3.97;2.63;;;;;;;9.76;100.00;99984.66;6250323;22;20099;-79
2022/12/29 00:04:53;;;;;;;2.08;1.98;;;;;;;9.80;100.00;99981.84;6249254;22;20501;-79
2022/12/29 00:07:19;;;;;;;2.28;2.17;;;;;;;9.84;100.00;99979.75;6250860;22;20417;-78
2022/12/29 00:09:46;;;;;;;2.25;2.15;;;;;;;9.85;100.00;99970.59;6250080;22;20013;-79
2022/12/29 00:12:12;;;;;;;2.20;1.90;;;;;;;9.87;100.00;99962.91;6250258;22;20008;-79
2022/12/29 00:17:24;;;;;;;2.45;2.25;;;;;;;9.88;100.00;99959.06;6249926;22;20016;-79
2022/12/29 00:36:38;;;;;;;2.10;1.80;;;;;;;9.98;100.00;99944.53;6222947;22;20441;-79
2022/12/29 00:44:04;;;;;;;2.15;2.05;;;;;;;10.03;100.00;99930.59;6249249;22;20013;-79
2022/12/29 00:45:05;;;;;;;1.90;1.80;;;;;;;10.01;100.00;99919.66;6249564;22;20062;-79
2022/12/29 00:47:32;;;;;;;1.92;1.83;;;;;;;10.02;100.00;99929.09;6222600;22;20020;-79
2022/12/29 00:49:59;;;;;;;2.00;1.80;;;;;;;10.05;100.00;99912.25;6222388;22;20027;-79
2022/12/29 00:52:26;;;;;;;1.77;1.67;;;;;;;10.05;100.00;99909.59;6250272;22;20040;-79
2022/12/29 00:54:53;;;;;;;2.05;1.90;;;;;;;10.04;100.00;99903.53;6222235;22;20067;-79
2022/12/29 00:57:19;;;;;;;4.70;1.85;;;;;;;10.06;100.00;99900.44;6250130;22;20071;-79
2022/12/29 00:59:46;;;;;;;4.32;1.70;;;;;;;10.04;100.00;99902.81;6249216;22;20024;-79
2022/12/29 01:02:14;;;;;;;2.97;1.55;;;;;;;10.08;99.83;99905.28;6222687;22;20028;-79
2022/12/29 01:04:42;;;;;;;4.35;1.90;;;;;;;10.09;100.00;99891.53;6222646;22;20435;-79
2022/12/29 01:07:08;;;;;;;1.80;1.70;;;;;;;10.06;100.00;99889.78;6249454;22;20066;-79
2022/12/29 01:12:40;;;;;;;1.83;1.73;;;;;;;9.99;100.00;99888.25;6249927;22;20023;-79
2022/12/29 01:15:11;;;;;;;1.63;1.52;;;;;;;10.01;100.00;99879.78;6221019;22;20079;-79
2022/12/29 01:17:37;;;;;;;1.50;1.45;;;;;;;9.99;100.00;99879.53;6222404;22;20031;-78
2022/12/29 01:20:04;;;;;;;1.60;1.50;;;;;;;9.97;100.00;99877.31;6249225;22;20020;-77
2022/12/29 01:22:31;;;;;;;1.42;1.35;;;;;;;9.91;100.00;99873.81;6249617;22;20017;-77
2022/12/29 01:24:57;;;;;;;1.63;1.52;;;;;;;9.88;100.00;99874.00;6248980;22;20017;-77
2022/12/29 01:27:24;;;;;;;2.83;1.33;;;;;;;9.84;100.00;99862.78;6222600;22;20031;-76
2022/12/29 01:29:50;;;;;;;1.42;1.33;;;;;;;9.79;100.00;99868.75;6248093;22;20012;-76
2022/12/29 01:32:17;;;;;;;1.85;1.10;;;;;;;9.75;100.00;99868.19;6223259;22;20043;-76
2022/12/29 01:34:43;;;;;;;1.48;1.38;;;;;;;9.70;100.00;99862.28;6222160;22;20039;-77
2022/12/29 01:37:10;;;;;;;1.40;1.30;;;;;;;9.67;100.00;99855.22;6249556;22;20021;-76
2022/12/29 01:39:37;;;;;;;1.60;1.50;;;;;;;9.64;100.00;99871.34;6222108;22;20016;-76
2022/12/29 01:42:04;;;;;;;1.58;1.48;;;;;;;9.60;100.00;99870.78;6221970;22;20108;-76
2022/12/29 01:44:50;;;;;;;1.23;0.93;;;;;;;9.58;100.00;99867.88;6221893;22;20017;-76
2022/12/29 01:47:25;;;;;;;1.40;1.30;;;;;;;9.56;100.00;99860.34;6249484;22;20020;-77
2022/12/29 01:49:55;;;;;;;1.20;1.20;;;;;;;9.56;100.00;99867.56;6248754;22;20017;-77
2022/12/29 01:52:24;;;;;;;1.30;1.30;;;;;;;9.55;100.00;99866.84;6249663;22;20016;-77
2022/12/29 01:54:54;;;;;;;1.35;1.25;;;;;;;9.54;100.00;99876.00;6221674;22;20020;-77
2022/12/29 01:57:27;;;;;;;1.20;1.20;;;;;;;9.55;100.00;99877.47;6222550;22;20113;-77
2022/12/29 02:00:03;;;;;;;1.70;1.60;;;;;;;9.56;100.00;99886.91;6221356;22;20455;-78
2022/12/29 02:02:38;;;;;;;3.22;1.58;;;;;;;9.56;100.00;99886.19;6249666;22;20027;-78
2022/12/29 02:05:29;;;;;;;1.20;1.20;;;;;;;9.54;100.00;99881.31;6221879;22;20017;-78
2022/12/29 02:07:56;;;;;;;4.60;1.42;;;;;;;9.54;100.00;99876.00;6227882;22;20032;-78
2022/12/29 02:10:26;;;;;;;1.23;1.13;;;;;;;9.53;100.00;99879.84;6249315;22;20020;-78
2022/12/29 02:12:53;;;;;;;1.85;1.30;;;;;;;9.55;100.00;99896.06;6246375;22;20059;-78
2022/12/29 02:15:46;;;;;;;2.00;1.80;;;;;;;9.56;100.00;99881.59;6222012;22;20055;-78
2022/12/29 02:18:24;;;;;;;1.45;1.35;;;;;;;9.56;100.00;99881.59;6162119;22;20024;-78
2022/12/29 02:21:13;;;;;;;1.33;1.30;;;;;;;9.54;100.00;99881.31;6196618;22;20016;-78
2022/12/29 02:23:50;;;;;;;1.45;1.30;;;;;;;9.54;100.00;99889.28;6221915;22;20045;-78
2022/12/29 02:26:30;;;;;;;2.38;1.48;;;;;;;9.54;100.00;99885.91;6222306;22;20435;-78
2022/12/29 02:29:01;;;;;;;2.50;1.40;;;;;;;9.53;100.00;99887.81;6247706;22;20021;-78
2022/12/29 02:31:51;;;;;;;1.50;1.40;;;;;;;9.51;100.00;99884.88;6223409;22;20071;-78
2022/12/29 02:34:23;;;;;;;6.07;1.15;;;;;;;9.51;100.00;99897.44;6250543;22;20017;-78
2022/12/29 02:37:19;;;;;;;1.38;1.10;;;;;;;9.50;100.00;99891.38;6222608;22;20024;-78
2022/12/29 02:39:54;;;;;;;1.45;1.00;;;;;;;9.50;100.00;99882.66;6177977;22;20021;-78
2022/12/29 02:42:30;;;;;;;2.10;1.60;;;;;;;9.49;100.00;99875.88;6247911;22;20031;-78
2022/12/29 02:45:06;;;;;;;4.07;1.15;;;;;;;9.46;100.00;99877.53;6248395;22;20477;-78
2022/12/29 02:48:11;;;;;;;3.50;1.17;;;;;;;9.46;100.00;99885.50;6223586;22;20075;-78
2022/12/29 02:50:44;;;;;;;1.92;1.08;;;;;;;9.47;100.00;99886.22;6248534;22;20063;-79
2022/12/29 02:53:17;;;;;;;2.95;1.02;;;;;;;9.45;100.00;99870.75;6223498;22;20023;-79
2022/12/29 02:55:51;;;;;;;1.50;0.88;;;;;;;9.48;100.00;99867.19;6222568;22;20042;-79
2022/12/29 02:58:21;;;;;;;0.65;0.60;;;;;;;9.50;100.00;99880.00;6248684;22;20461;-77
2022/12/29 03:01:02;;;;;;;1.30;0.80;;;;;;;9.49;100.00;99870.56;6222929;22;20447;-78
2022/12/29 03:03:39;;;;;;;3.08;1.17;;;;;;;9.50;100.00;99858.75;6248968;22;20442;-77
2022/12/29 03:06:30;;;;;;;0.73;0.63;;;;;;;9.49;100.00;99863.34;6250243;22;20331;-77
2022/12/29 03:09:19;;;;;;;3.30;0.97;;;;;;;9.47;100.00;99875.59;6222841;22;20095;-78
2022/12/29 03:12:15;;;;;;;1.65;0.82;;;;;;;9.44;100.00;99882.56;6222185;22;20051;-78
2022/12/29 03:18:07;;;;;;;0.80;0.80;;;;;;;9.41;100.00;99878.13;6222649;22;20100;-78
2022/12/29 03:20:41;;;;;;;1.08;0.80;;;;;;;9.39;100.00;99864.56;6223207;22;20020;-79
2022/12/29 03:23:08;;;;;;;1.50;0.80;;;;;;;9.39;100.00;99879.78;6248545;22;20025;-78
2022/12/29 03:25:39;;;;;;;2.13;0.77;;;;;;;9.39;100.00;99885.09;6222536;22;20079;-78
2022/12/29 03:28:13;;;;;;;0.73;0.73;;;;;;;9.40;100.00;99874.00;6223107;22;20066;-78
2022/12/29 03:30:43;;;;;;;0.85;0.80;;;;;;;9.39;100.00;99851.28;6223277;22;20020;-78
2022/12/29 03:33:16;;;;;;;0.80;0.80;;;;;;;9.40;100.00;99854.69;6222974;22;20025;-78
2022/12/29 03:35:47;;;;;;;1.30;1.00;;;;;;;9.35;100.00;99842.75;6247958;22;20063;-78
2022/12/29 03:38:25;;;;;;;1.20;1.10;;;;;;;9.31;100.00;99850.16;6222952;22;20016;-78
2022/12/29 03:40:56;;;;;;;0.85;0.85;;;;;;;9.27;100.00;99844.28;6221882;22;20031;-78
2022/12/29 03:43:26;;;;;;;1.17;1.10;;;;;;;9.24;100.00;99855.78;6223570;22;20008;-78
2022/12/29 03:45:54;;;;;;;1.48;1.00;;;;;;;9.21;100.00;99862.75;6247314;22;20488;-78
2022/12/29 03:48:20;;;;;;;1.42;1.23;;;;;;;9.19;100.00;99856.44;6223256;22;20079;-78
2022/12/29 03:50:48;;;;;;;1.90;1.13;;;;;;;9.19;100.00;99849.19;6222426;22;20075;-78
2022/12/29 03:53:16;;;;;;;1.67;1.20;;;;;;;9.18;100.00;99850.38;6198230;22;20055;-78
2022/12/29 03:55:44;;;;;;;1.42;1.17;;;;;;;9.16;100.00;99855.41;6222083;22;20108;-78
2022/12/29 03:58:10;;;;;;;1.73;1.30;;;;;;;9.12;100.00;99859.41;6222907;22;20012;-78
2022/12/29 04:00:49;;;;;;;1.67;1.27;;;;;;;9.09;100.00;99850.44;6200070;22;20021;-79
2022/12/29 04:03:16;;;;;;;2.03;1.27;;;;;;;9.07;100.00;99852.78;6223112;22;20447;-79
2022/12/29 04:05:44;;;;;;;3.42;1.40;;;;;;;9.02;100.00;99851.47;6222519;22;20105;-79
2022/12/29 04:08:10;;;;;;;1.98;1.20;;;;;;;9.01;100.00;99846.63;6222552;22;20021;-79
2022/12/29 04:10:37;;;;;;;5.50;1.33;;;;;;;9.01;100.00;99838.66;6222098;22;20070;-79
2022/12/29 04:13:05;;;;;;;1.80;1.70;;;;;;;9.02;100.00;99848.81;6222900;22;20021;-78
2022/12/29 04:15:31;;;;;;;4.43;1.38;;;;;;;9.01;100.00;99852.66;6223068;22;20020;-79
2022/12/29 04:17:58;;;;;;;1.30;1.05;;;;;;;9.01;100.00;99849.28;6249425;22;20096;-79
2022/12/29 04:23:11;;;;;;;1.55;1.08;;;;;;;8.99;100.00;99873.63;6222141;22;20024;-79
2022/12/29 04:25:37;;;;;;;1.63;1.10;;;;;;;8.99;100.00;99883.50;6222838;22;20016;-79
2022/12/29 04:28:07;;;;;;;4.72;1.20;;;;;;;9.01;100.00;99870.50;6223045;22;20027;-79
2022/12/29 04:30:55;;;;;;;2.05;1.00;;;;;;;9.06;100.00;99874.47;6222210;22;20016;-79
2022/12/29 04:33:25;;;;;;;2.88;1.10;;;;;;;9.08;100.00;99890.69;6223092;22;20032;-79
2022/12/29 04:35:55;;;;;;;3.65;1.17;;;;;;;9.12;100.00;99876.09;6222066;22;20028;-79
2022/12/29 04:38:23;;;;;;;4.18;1.13;;;;;;;9.10;100.00;99878.44;6222106;22;20554;-79
2022/12/29 04:40:51;;;;;;;7.35;1.13;;;;;;;9.09;100.00;99889.50;6247251;22;20076;-79
2022/12/29 04:43:22;;;;;;;3.03;1.15;;;;;;;9.08;99.96;99891.44;6223000;22;20120;-79
2022/12/29 04:46:14;;;;;;;2.80;1.15;;;;;;;9.08;99.51;99893.34;6245211;22;20024;-79
2022/12/29 04:48:47;;;;;;;3.83;0.93;;;;;;;9.06;99.11;99891.16;6222874;22;20391;-79
2022/12/29 04:51:40;;;;;;;4.00;1.27;;;;;;;9.06;98.95;99893.06;6243337;22;20021;-78
2022/12/29 04:54:08;;;;;;;4.88;1.27;;;;;;;9.05;98.67;99899.56;6222483;22;20021;-79
2022/12/29 04:56:36;;;;;;;6.25;1.17;;;;;;;9.03;98.23;99889.38;6222240;22;20021;-79
2022/12/29 04:59:02;;;;;;;6.57;1.13;;;;;;;9.03;98.06;99900.00;6248066;22;20020;-79
2022/12/29 05:01:29;;;;;;;4.70;1.05;;;;;;;9.02;97.95;99893.22;6250261;22;20320;-79
2022/12/29 05:03:57;;;;;;;3.38;1.38;;;;;;;9.03;97.83;99900.75;6222595;22;20021;-79
2022/12/29 05:06:24;;;;;;;6.60;1.00;;;;;;;9.00;97.65;99904.28;6222307;22;20067;-81
2022/12/29 05:08:50;;;;;;;5.65;1.05;;;;;;;9.02;97.90;99917.13;6249234;22;20021;-79
2022/12/29 05:11:17;;;;;;;6.70;1.17;;;;;;;9.04;97.16;99912.09;6222890;22;20021;-79
2022/12/29 05:13:46;;;;;;;7.72;1.10;;;;;;;9.03;97.07;99923.91;6222236;22;20028;-79
2022/12/29 05:16:15;;;;;;;5.22;1.50;;;;;;;9.03;96.76;99916.66;6222803;22;20232;-79
2022/12/29 05:18:42;;;;;;;8.18;1.40;;;;;;;9.00;96.30;99912.25;6222192;22;20017;-79
2022/12/29 05:21:09;;;;;;;11.85;1.45;;;;;;;9.00;96.64;99911.53;6221620;22;20020;-79
2022/12/29 05:23:36;;;;;;;7.15;1.48;;;;;;;8.97;96.07;99915.81;6222277;22;20466;-79
2022/12/29 05:26:05;;;;;;;3.78;1.13;;;;;;;8.97;96.29;99909.75;6222191;22;20037;-79
2022/12/29 05:28:43;;;;;;;9.90;1.33;;;;;;;8.95;96.41;99920.81;6247949;22;20040;-79
2022/12/29 05:31:12;;;;;;;7.55;1.52;;;;;;;8.95;96.10;99920.09;6222980;22;20071;-79
2022/12/29 05:33:39;;;;;;;5.45;1.40;;;;;;;8.94;95.45;99913.31;6223593;22;20083;-79
2022/12/29 05:36:07;;;;;;;5.05;1.23;;;;;;;8.95;95.37;99922.75;6249400;22;20021;-81
2022/12/29 05:38:36;;;;;;;12.88;1.40;;;;;;;8.96;95.30;99919.63;6248643;22;20021;-79
2022/12/29 05:41:03;;;;;;;7.32;1.38;;;;;;;8.96;95.43;99927.59;6222777;22;20096;-81
2022/12/29 05:43:47;;;;;;;9.50;1.58;;;;;;;8.95;95.20;99923.47;6250441;22;20147;-81
2022/12/29 05:46:29;;;;;;;8.50;1.15;;;;;;;8.95;94.92;99918.16;6223379;22;20021;-79
2022/12/29 05:49:17;;;;;;;5.15;1.30;;;;;;;8.95;95.22;99915.50;6223245;22;20044;-81
2022/12/29 05:52:03;;;;;;;7.57;1.40;;;;;;;8.94;95.01;99919.34;6249431;22;20017;-80
2022/12/29 05:54:31;;;;;;;3.55;1.17;;;;;;;8.92;95.04;99924.38;6222744;22;20493;-80
2022/12/29 05:56:58;;;;;;;6.10;1.05;;;;;;;8.92;94.84;99928.94;6222672;22;20104;-80
2022/12/29 05:59:24;;;;;;;7.75;1.33;;;;;;;8.91;95.22;99936.16;6223151;22;20375;-79
2022/12/29 06:01:53;;;;;;;7.93;1.23;;;;;;;8.92;95.23;99940.28;6222945;22;20051;-80
2022/12/29 06:04:19;;;;;;;10.20;2.08;;;;;;;8.91;94.91;99938.81;6224011;22;20021;-80
2022/12/29 06:06:46;;;;;;;4.10;1.08;;;;;;;8.93;93.95;99952.38;6224433;22;20391;-78
2022/12/29 06:09:21;;;;;;;5.97;1.45;;;;;;;8.95;93.74;99950.03;6224093;22;20075;-80
2022/12/29 06:11:48;;;;;;;10.60;1.83;;;;;;;8.99;94.17;99957.84;6198832;22;20021;-78
2022/12/29 06:14:15;;;;;;;6.85;1.55;;;;;;;8.94;94.51;99953.84;6224600;22;20048;-79
2022/12/29 06:16:41;;;;;;;3.53;1.20;;;;;;;8.89;95.14;99961.69;6224468;22;20024;-79
2022/12/29 06:19:10;;;;;;;4.25;1.42;;;;;;;8.85;94.78;99966.41;6223398;22;20016;-77
2022/12/29 06:21:37;;;;;;;9.88;1.40;;;;;;;8.83;94.65;99961.53;6224217;22;20067;-77
2022/12/29 06:24:04;;;;;;;7.03;1.95;;;;;;;8.83;95.31;99961.53;6223824;22;20425;-77
2022/12/29 06:26:33;;;;;;;8.60;1.17;;;;;;;8.78;95.19;99959.50;6249672;22;20016;-76
2022/12/29 06:29:00;;;;;;;6.43;1.80;;;;;;;8.74;95.51;99960.84;6198844;22;20023;-77
2022/12/29 06:31:27;;;;;;;8.32;1.40;;;;;;;8.68;96.87;99963.34;6224193;22;20461;-76
2022/12/29 06:33:53;;;;;;;7.97;1.70;;;;;;;8.63;97.01;99974.56;6223374;22;20031;-76
2022/12/29 06:36:20;;;;;;;8.15;1.70;;;;;;;8.60;97.72;99976.19;6224200;22;20465;-75
2022/12/29 06:38:46;;;;;;;9.20;1.75;;;;;;;8.54;97.56;99977.94;6224136;22;20482;-75
2022/12/29 06:41:13;;;;;;;6.78;1.50;;;;;;;8.52;98.07;99982.97;6250826;22;20044;-76
2022/12/29 06:44:12;;;;;;;8.88;1.50;;;;;;;8.50;98.34;99987.97;6250218;22;20100;-76
2022/12/29 06:47:00;;;;;;;13.70;1.85;;;;;;;8.47;98.41;99982.81;6251149;22;20066;-78
2022/12/29 06:49:26;;;;;;;6.22;1.40;;;;;;;8.45;97.68;99985.16;6250604;22;20071;-77
2022/12/29 06:51:53;;;;;;;11.05;1.73;;;;;;;8.46;97.98;99966.16;6223730;22;20020;-79
2022/12/29 06:54:19;;;;;;;5.80;1.20;;;;;;;8.46;97.67;99976.03;6224390;22;20037;-79
2022/12/29 06:56:46;;;;;;;4.15;1.30;;;;;;;8.49;95.73;99969.84;6224105;22;20064;-79
2022/12/29 06:59:12;;;;;;;8.73;1.58;;;;;;;8.53;95.34;99981.78;6251126;22;20017;-79
2022/12/29 07:01:39;;;;;;;8.02;1.45;;;;;;;8.54;95.25;99974.56;6251222;22;20020;-79
2022/12/29 07:04:06;;;;;;;7.47;1.48;;;;;;;8.57;94.55;99963.06;6250564;22;20083;-78
2022/12/29 07:06:32;;;;;;;4.63;1.50;;;;;;;8.58;93.83;99983.84;6251194;22;20012;-77
2022/12/29 07:08:59;;;;;;;5.05;1.55;;;;;;;8.57;93.42;100000.22;6223829;22;20355;-77
2022/12/29 07:11:26;;;;;;;12.40;2.05;;;;;;;8.52;94.07;99995.50;6251073;22;20032;-77
2022/12/29 07:13:52;;;;;;;11.80;1.98;;;;;;;8.42;95.38;99992.09;6249665;22;20466;-76
2022/12/29 07:16:19;;;;;;;9.38;1.65;;;;;;;8.29;96.63;99981.63;6251153;22;20028;-79
2022/12/29 07:18:46;;;;;;;5.03;1.38;;;;;;;8.20;97.45;99978.94;6250583;22;20012;-79
2022/12/29 07:21:12;;;;;;;6.72;1.33;;;;;;;8.13;98.19;99992.50;6223864;22;20012;-79
2022/12/29 07:23:39;;;;;;;4.10;1.17;;;;;;;8.05;98.46;99996.59;6198571;22;20024;-79
2022/12/29 07:26:07;;;;;;;5.72;1.40;;;;;;;7.98;98.88;100002.19;6250762;22;20019;-80
2022/12/29 07:28:35;;;;;;;7.18;1.73;;;;;;;7.94;99.34;100007.66;6251396;22;20013;-81
2022/12/29 07:31:02;;;;;;;7.40;1.38;;;;;;;7.89;99.71;100005.56;6249087;22;20104;-82
2022/12/29 07:33:29;;;;;;;6.88;1.45;;;;;;;7.85;100.00;100004.22;6250632;22;20491;-84
2022/12/29 07:35:56;;;;;;;5.28;1.30;;;;;;;7.80;100.00;100020.69;6251133;22;20067;-82
2022/12/29 07:38:23;;;;;;;7.13;1.60;;;;;;;7.76;100.00;100017.44;6251337;22;20021;-88
2022/12/29 07:40:49;;;;;;;9.52;1.77;;;;;;;7.75;100.00;100022.00;6223551;22;20028;-82
2022/12/29 07:43:16;;;;;;;4.85;1.33;;;;;;;7.75;100.00;100016.69;6250788;22;20429;-83
2022/12/29 07:45:56;;;;;;;5.30;1.38;;;;;;;7.77;100.00;100022.31;6222816;22;20024;-83
2022/12/29 07:48:23;;;;;;;3.22;1.23;;;;;;;7.78;100.00;100015.84;6251209;22;20441;-83
2022/12/29 07:50:50;;;;;;;4.95;1.75;;;;;;;7.79;100.00;100019.22;6223718;22;20107;-82
2022/12/29 07:53:16;;;;;;;3.50;1.35;;;;;;;7.81;100.00;100014.97;6250804;22;20020;-82
2022/12/29 07:55:43;;;;;;;4.65;1.50;;;;;;;7.83;100.00;100017.91;6224516;22;20047;-83
2022/12/29 07:58:10;;;;;;;5.32;0.93;;;;;;;7.87;100.00;100021.16;6250735;22;20096;-83
2022/12/29 08:00:37;;;;;;;10.27;1.88;;;;;;;7.92;100.00;100027.81;6224016;22;20020;-90
2022/12/29 08:03:04;;;;;;;5.70;1.50;;;;;;;7.97;100.00;100027.22;6224931;22;20032;-80
2022/12/29 08:05:34;;;;;;;6.68;1.70;;;;;;;7.98;100.00;100015.47;6254953;22;20067;-93
2022/12/29 08:08:00;;;;;;;4.65;1.70;;;;;;;8.02;99.40;100008.06;6211392;22;20013;-87
2022/12/29 08:10:27;;;;;;;4.35;1.63;;;;;;;8.04;99.02;100009.13;6257926;22;20035;-89
2022/12/29 08:12:53;;;;;;;4.80;1.70;;;;;;;8.09;98.59;100005.16;6227374;22;20399;-87
2022/12/29 08:15:20;;;;;;;7.43;1.60;;;;;;;8.11;98.27;99999.41;6257937;22;20004;-87
2022/12/29 08:17:52;;;;;;;5.53;1.60;;;;;;;8.15;97.62;100000.00;6258770;22;20016;-88
2022/12/29 08:20:19;;;;;;;7.97;1.38;;;;;;;8.16;97.11;99988.97;6228974;22;20027;-87
2022/12/29 08:22:45;;;;;;;8.20;1.80;;;;;;;8.20;96.24;100002.06;6250299;22;20016;-87
2022/12/29 08:25:12;;;;;;;11.20;2.10;;;;;;;8.22;96.49;99987.22;6197711;22;20100;-87
2022/12/29 08:27:38;;;;;;;6.50;1.27;;;;;;;8.27;95.80;99999.88;6222042;22;20017;-83
2022/12/29 08:30:05;;;;;;;6.32;1.52;;;;;;;8.30;95.25;99999.00;6248047;22;20083;-85
2022/12/29 08:32:32;;;;;;;7.38;1.70;;;;;;;8.34;94.85;100001.53;6249257;22;20390;-84
2022/12/29 08:34:59;;;;;;;5.45;2.15;;;;;;;8.39;94.17;100000.97;6248444;22;20060;-84
2022/12/29 08:37:25;;;;;;;11.40;1.58;;;;;;;8.40;93.70;100007.72;6250141;22;20057;-83
2022/12/29 08:39:58;;;;;;;6.90;1.67;;;;;;;8.44;93.12;100004.91;6250983;22;20106;-85
2022/12/29 08:42:30;;;;;;;5.47;1.92;;;;;;;8.47;92.99;99999.47;6224515;22;20025;-84
2022/12/29 08:44:58;;;;;;;5.00;1.73;;;;;;;8.47;93.02;100002.13;6223209;22;20029;-85
2022/12/29 08:47:25;;;;;;;5.78;1.48;;;;;;;8.48;92.66;100014.19;6250895;22;20017;-86
2022/12/29 08:49:51;;;;;;;3.85;1.42;;;;;;;8.49;92.24;100014.94;6250853;22;20013;-85
2022/12/29 08:52:18;;;;;;;7.88;1.85;;;;;;;8.51;92.22;100017.88;6250292;22;20020;-85
2022/12/29 08:54:45;;;;;;;5.07;1.20;;;;;;;8.53;92.88;100018.91;6250651;22;20019;-85
2022/12/29 08:57:11;;;;;;;8.77;1.48;;;;;;;8.55;93.10;100015.81;6223265;22;20035;-82
2022/12/29 08:59:53;;;;;;;8.55;1.70;;;;;;;8.50;93.83;100025.09;6222482;22;20048;-83
2022/12/29 09:02:20;;;;;;;7.40;1.60;;;;;;;8.48;93.58;100027.47;6223458;22;20100;-83
2022/12/29 09:04:50;;;;;;;7.78;1.70;;;;;;;8.51;94.10;100039.09;6250381;22;20021;-84
2022/12/29 09:07:16;;;;;;;9.35;1.70;;;;;;;8.54;93.89;100022.31;6250521;22;20016;-84
2022/12/29 09:09:43;;;;;;;8.88;1.52;;;;;;;8.56;93.33;100033.97;6250320;22;20071;-84
2022/12/29 09:12:09;;;;;;;11.43;1.90;;;;;;;8.57;93.52;100035.44;6249731;22;20445;-83
2022/12/29 09:14:36;;;;;;;7.75;1.70;;;;;;;8.58;94.06;100033.53;6249749;22;20088;-80
2022/12/29 09:19:47;;;;;;;9.20;1.85;;;;;;;8.62;94.32;100042.06;6249254;22;20024;-83
2022/12/29 09:22:14;;;;;;;8.45;1.77;;;;;;;8.60;94.38;100039.84;6223052;22;20032;-82
2022/12/29 09:24:40;;;;;;;7.07;1.33;;;;;;;8.61;94.87;100046.63;6250443;22;20020;-78
2022/12/29 09:27:07;;;;;;;4.85;1.40;;;;;;;8.59;95.18;100049.00;6223318;22;20012;-86
2022/12/29 09:29:33;;;;;;;7.45;1.30;;;;;;;8.57;95.24;100053.25;6249805;22;20020;-85
2022/12/29 09:32:00;;;;;;;4.88;1.52;;;;;;;8.53;95.85;100061.38;6249792;22;20023;-84
2022/12/29 09:34:26;;;;;;;5.03;1.50;;;;;;;8.50;96.58;100067.56;6250193;22;20420;-82
2022/12/29 09:36:53;;;;;;;5.72;1.40;;;;;;;8.46;97.62;100066.22;6248585;22;20422;-86
2022/12/29 09:39:20;;;;;;;5.78;1.60;;;;;;;8.40;98.03;100092.59;6249705;22;20017;-86
2022/12/29 09:42:17;;;;;;;9.00;1.50;;;;;;;8.38;98.62;100088.91;6249124;22;20020;-82
2022/12/29 09:45:03;;;;;;;7.47;1.65;;;;;;;8.33;99.76;100098.19;6223521;22;20021;-84
2022/12/29 09:47:30;;;;;;;4.00;1.33;;;;;;;8.26;100.00;100091.22;6223359;22;20028;-79
2022/12/29 09:50:37;;;;;;;5.90;1.90;;;;;;;8.21;100.00;100097.09;6249442;22;20017;-83
2022/12/29 09:53:13;;;;;;;7.72;1.40;;;;;;;8.18;100.00;100116.53;6248446;22;20016;-82
2022/12/29 09:55:46;;;;;;;6.60;1.23;;;;;;;8.16;100.00;100100.31;6250302;22;20013;-83
2022/12/29 09:58:42;;;;;;;5.72;1.38;;;;;;;8.16;100.00;100107.53;6247880;22;20032;-83
2022/12/29 10:01:20;;;;;;;3.50;1.65;;;;;;;8.17;100.00;100119.63;6249501;22;20047;-82
2022/12/29 10:03:56;;;;;;;8.85;1.85;;;;;;;8.16;100.00;100112.84;6223005;22;20027;-81
2022/12/29 10:06:37;;;;;;;6.90;1.60;;;;;;;8.15;100.00;100124.63;6250006;22;20020;-81
2022/12/29 10:09:32;;;;;;;9.13;1.35;;;;;;;8.15;100.00;100125.34;6249569;22;20019;-82
2022/12/29 10:12:18;;;;;;;5.80;1.95;;;;;;;8.16;100.00;100144.66;6247258;22;20436;-83
2022/12/29 10:15:18;;;;;;;8.30;1.60;;;;;;;8.17;100.00;100138.16;6249623;22;20437;-82
2022/12/29 10:18:02;;;;;;;2.42;1.42;;;;;;;8.19;100.00;100133.91;6249716;22;20020;-83
2022/12/29 10:20:42;;;;;;;8.13;1.88;;;;;;;8.19;100.00;100144.53;6222696;22;20179;-84
2022/12/29 10:23:31;;;;;;;7.80;1.45;;;;;;;8.20;100.00;100155.88;6222294;22;20444;-87
2022/12/29 10:26:01;;;;;;;4.78;1.10;;;;;;;8.20;100.00;100155.88;6249395;22;20013;-84
2022/12/29 10:28:39;;;;;;;3.92;1.40;;;;;;;8.22;100.00;100151.59;6250077;22;20019;-86
2022/12/29 10:31:16;;;;;;;8.30;1.55;;;;;;;8.24;100.00;100164.41;6249969;22;20012;-87
2022/12/29 10:33:43;;;;;;;6.03;1.70;;;;;;;8.21;100.00;100162.66;6250108;22;20482;-83
2022/12/29 10:36:20;;;;;;;4.05;1.45;;;;;;;8.21;100.00;100181.19;6222266;22;20028;-83
2022/12/29 10:39:22;;;;;;;7.15;1.80;;;;;;;8.20;100.00;100180.47;6250049;22;20100;-85
2022/12/29 10:42:10;;;;;;;6.05;1.70;;;;;;;8.23;100.00;100189.47;6220238;22;20818;-85
2022/12/29 10:44:37;;;;;;;5.50;1.45;;;;;;;8.23;100.00;100181.50;6255435;22;20017;-86
2022/12/29 10:47:11;;;;;;;7.38;1.70;;;;;;;8.23;100.00;100184.16;6225278;22;20099;-85
2022/12/29 10:49:42;;;;;;;5.55;1.80;;;;;;;8.23;100.00;100203.47;6250780;22;20012;-88
2022/12/29 10:52:10;;;;;;;10.48;1.90;;;;;;;8.26;100.00;100207.16;6252261;22;20044;-87
2022/12/29 10:55:03;;;;;;;9.75;1.83;;;;;;;8.25;100.00;100214.38;6223593;22;20021;-84
2022/12/29 10:57:39;;;;;;;5.55;1.58;;;;;;;8.27;100.00;100227.94;6251300;22;20481;-82
2022/12/29 11:00:24;;;;;;;5.95;1.92;;;;;;;8.26;100.00;100223.06;6250704;22;20430;-82
2022/12/29 11:03:12;;;;;;;2.25;1.60;;;;;;;8.26;100.00;100234.41;6250784;22;20500;-79
2022/12/29 11:06:00;;;;;;;9.57;2.08;;;;;;;8.24;100.00;100243.97;6224572;22;20505;-81
2022/12/29 11:08:33;;;;;;;6.72;2.20;;;;;;;8.24;100.00;100241.31;6250980;22;20189;-81
2022/12/29 11:11:00;;;;;;;10.15;3.47;;;;;;;8.24;100.00;100247.38;6248469;22;20088;-79
2022/12/29 11:13:30;;;;;;;9.80;4.28;;;;;;;8.26;100.00;100260.19;6248486;22;20044;-77
2022/12/29 11:16:04;;;;;;;8.85;2.75;;;;;;;8.29;100.00;100260.06;6248655;22;20021;-80
2022/12/29 11:18:37;;;;;;;8.48;2.42;;;;;;;8.31;100.00;100263.03;6249040;22;20024;-80
2022/12/29 11:21:39;;;;;;;11.18;2.13;;;;;;;8.37;100.00;100262.50;6249240;22;20012;-85
2022/12/29 11:24:20;;;;;;;10.05;2.30;;;;;;;8.44;100.00;100259.56;6228650;22;20875;-85
2022/12/29 11:26:50;;;;;;;9.90;2.63;;;;;;;8.51;100.00;100264.59;6250842;22;20023;-84
2022/12/29 11:29:22;;;;;;;16.80;2.55;;;;;;;8.60;100.00;100275.25;6249157;22;20016;-82
2022/12/29 11:31:50;;;;;;;11.68;2.67;;;;;;;8.66;100.00;100265.56;6250693;22;20016;-82
2022/12/29 11:34:32;;;;;;;9.00;2.75;;;;;;;8.68;100.00;100279.13;6251055;22;20013;-82
2022/12/29 11:37:09;;;;;;;10.52;3.08;;;;;;;8.65;100.00;100283.38;6250186;22;20024;-82
2022/12/29 11:39:54;;;;;;;5.82;2.08;;;;;;;8.61;100.00;100282.78;6250373;22;20073;-82
2022/12/29 11:42:40;;;;;;;13.23;2.97;;;;;;;8.56;100.00;100290.56;6251638;22;20013;-82
2022/12/29 11:45:18;;;;;;;13.93;3.40;;;;;;;8.50;100.00;100294.94;6250160;22;20025;-82
2022/12/29 11:47:49;;;;;;;8.57;2.58;;;;;;;8.46;100.00;100294.34;6248945;22;20036;-82
2022/12/29 11:50:22;;;;;;;7.07;2.08;;;;;;;8.45;100.00;100292.84;6250856;22;20021;-80
2022/12/29 11:52:56;;;;;;;14.00;2.33;;;;;;;8.52;100.00;100292.59;6222181;22;20023;-84
2022/12/29 11:55:25;;;;;;;11.93;2.33;;;;;;;8.53;100.00;100286.13;6252180;22;20013;-94
2022/12/29 11:57:55;;;;;;;11.23;2.47;;;;;;;8.51;100.00;100301.75;6224889;22;20020;-82
2022/12/29 12:00:24;;;;;;;13.25;2.63;;;;;;;8.48;100.00;100298.03;6251412;22;20015;-84
2022/12/29 12:02:58;;;;;;;11.25;2.55;;;;;;;8.51;100.00;100299.09;6249600;22;20481;-81
2022/12/29 12:05:36;;;;;;;6.97;2.40;;;;;;;8.51;100.00;100305.13;6251092;22;20502;-87
2022/12/29 12:08:13;;;;;;;8.73;2.75;;;;;;;8.48;100.00;100305.25;6249922;22;20472;-84
2022/12/29 12:11:13;;;;;;;18.02;2.80;;;;;;;8.48;100.00;100305.25;6223974;22;20017;-81
2022/12/29 12:13:58;;;;;;;8.07;2.50;;;;;;;8.44;100.00;100316.00;6223418;22;20023;-82
2022/12/29 12:16:39;;;;;;;12.02;2.90;;;;;;;8.41;100.00;100319.50;6223414;22;20019;-78
2022/12/29 12:19:33;;;;;;;15.60;2.63;;;;;;;8.40;100.00;100319.97;6250148;22;20465;-79
2022/12/29 12:22:14;;;;;;;21.08;3.25;;;;;;;8.42;100.00;100323.66;6250030;22;20024;-80
2022/12/29 12:24:49;;;;;;;8.55;2.90;;;;;;;8.45;100.00;100319.38;6250620;22;20012;-80
2022/12/29 12:27:25;;;;;;;12.27;2.67;;;;;;;8.48;100.00;100315.88;6250211;22;20016;-84
2022/12/29 12:29:56;;;;;;;13.13;2.35;;;;;;;8.52;100.00;100317.22;6250358;22;20017;-83